Time;durP1;ratioP1;P1;durP2;ratioP2;P2;SDS_P1;SDS_P2;PMS_P1;PMS_P2;Temp;Humidity;BMP_temperature;BMP_pressure;BME280_temperature;BME280_humidity;BME280_pressure;Samples;Min_cycle;Max_cycle;Signal;HPM_P1;HPM_P2
2024/02/02 00:02:15;;;;;;;11.65;8.40;;;6.50;90.40;;;;;;5039552;28;20033;-65
2024/02/02 00:04:41;;;;;;;8.65;7.57;;;6.40;90.50;;;;;;5036663;28;20041;-65
2024/02/02 00:07:06;;;;;;;13.27;8.73;;;6.40;90.50;;;;;;5037294;28;20123;-65
2024/02/02 00:09:32;;;;;;;11.25;8.60;;;6.40;90.50;;;;;;5037663;28;20030;-65
2024/02/02 00:11:58;;;;;;;11.98;8.75;;;6.40;90.50;;;;;;5039697;28;20124;-65
2024/02/02 00:14:25;;;;;;;13.82;8.98;;;6.40;90.40;;;;;;5033738;28;20064;-65
2024/02/02 00:16:50;;;;;;;13.75;10.10;;;6.40;90.40;;;;;;5037026;28;20390;-63
2024/02/02 00:19:17;;;;;;;14.32;10.85;;;6.40;90.40;;;;;;5036480;28;20044;-65
2024/02/02 00:21:42;;;;;;;13.68;10.60;;;6.30;90.40;;;;;;5036297;28;20033;-65
2024/02/02 00:24:08;;;;;;;14.15;10.45;;;6.30;90.50;;;;;;5035659;28;20025;-64
2024/02/02 00:26:34;;;;;;;16.00;12.02;;;6.30;90.50;;;;;;5038456;28;20033;-65
2024/02/02 00:28:59;;;;;;;13.68;10.68;;;6.30;90.60;;;;;;5037583;28;20033;-64
2024/02/02 00:31:25;;;;;;;13.05;11.05;;;6.30;90.70;;;;;;5036026;28;20047;-65
2024/02/02 00:33:50;;;;;;;13.98;10.77;;;6.30;90.80;;;;;;5034469;28;20044;-65
2024/02/02 00:36:16;;;;;;;13.48;10.70;;;6.30;90.90;;;;;;5036473;28;20055;-63
2024/02/02 00:38:42;;;;;;;11.05;9.38;;;6.30;91.10;;;;;;5034452;28;20375;-62
2024/02/02 00:41:08;;;;;;;11.38;9.63;;;6.30;91.10;;;;;;5037862;28;20063;-65
2024/02/02 00:43:34;;;;;;;10.90;9.00;;;6.30;91.20;;;;;;5037684;28;20036;-65
2024/02/02 00:46:00;;;;;;;10.85;8.90;;;6.30;91.30;;;;;;5036503;28;20063;-62
2024/02/02 00:48:26;;;;;;;9.82;8.13;;;6.30;91.30;;;;;;5045410;28;20029;-63
2024/02/02 00:50:52;;;;;;;11.00;8.35;;;6.30;91.40;;;;;;5040210;28;21357;-65
2024/02/02 00:53:17;;;;;;;9.90;8.27;;;6.30;91.40;;;;;;5042922;28;20460;-64
2024/02/02 00:55:43;;;;;;;11.23;8.25;;;6.30;91.30;;;;;;5043663;28;20045;-65
2024/02/02 00:58:08;;;;;;;11.02;8.40;;;6.40;91.30;;;;;;5044644;28;20040;-65
2024/02/02 01:00:34;;;;;;;10.38;8.70;;;6.40;91.20;;;;;;5045710;28;20116;-65
2024/02/02 01:03:00;;;;;;;11.40;8.10;;;6.40;91.10;;;;;;5045284;28;20029;-65
2024/02/02 01:05:26;;;;;;;10.10;8.75;;;6.50;91.10;;;;;;5043918;28;20401;-65
2024/02/02 01:07:51;;;;;;;11.82;8.70;;;6.50;91.20;;;;;;5050047;28;20127;-65
2024/02/02 01:10:17;;;;;;;10.07;8.65;;;6.50;91.20;;;;;;5042861;28;20033;-65
2024/02/02 01:12:44;;;;;;;11.88;8.57;;;6.60;91.30;;;;;;5049218;28;20041;-65
2024/02/02 01:15:10;;;;;;;9.57;7.93;;;6.60;91.30;;;;;;5049654;28;20032;-65
2024/02/02 01:17:36;;;;;;;9.90;7.75;;;6.60;91.20;;;;;;5046973;28;20394;-65
2024/02/02 01:20:03;;;;;;;9.68;8.15;;;6.60;91.20;;;;;;5042825;28;20034;-65
2024/02/02 01:22:30;;;;;;;9.75;8.15;;;6.60;91.20;;;;;;5047342;28;20044;-65
2024/02/02 01:24:56;;;;;;;10.40;7.90;;;6.60;91.20;;;;;;5046561;28;20042;-65
2024/02/02 01:27:22;;;;;;;9.63;7.38;;;6.60;91.10;;;;;;5044621;28;20044;-64
2024/02/02 01:29:47;;;;;;;9.77;7.57;;;6.60;91.10;;;;;;5047811;28;20033;-64
2024/02/02 01:32:13;;;;;;;9.50;7.82;;;6.60;91.10;;;;;;5050285;28;20041;-65
2024/02/02 01:34:38;;;;;;;8.93;7.15;;;6.60;91.10;;;;;;5049003;28;20033;-64
2024/02/02 01:37:04;;;;;;;7.65;6.60;;;6.60;91.10;;;;;;5051124;28;20087;-64
2024/02/02 01:39:30;;;;;;;9.77;7.40;;;6.60;91.10;;;;;;5046768;28;20040;-65
2024/02/02 01:41:56;;;;;;;9.07;6.97;;;6.60;91.10;;;;;;5046847;28;20037;-65
2024/02/02 01:44:21;;;;;;;8.18;6.70;;;6.60;91.10;;;;;;5045227;28;20519;-65
2024/02/02 01:46:47;;;;;;;7.78;6.65;;;6.60;91.00;;;;;;5045983;28;20120;-65
2024/02/02 01:49:13;;;;;;;8.43;6.20;;;6.60;91.00;;;;;;5045432;28;20029;-65
2024/02/02 01:51:40;;;;;;;6.90;5.85;;;6.70;91.00;;;;;;5047936;28;20095;-62
2024/02/02 01:54:06;;;;;;;6.97;5.68;;;6.70;91.00;;;;;;5045981;28;20033;-64
2024/02/02 01:56:32;;;;;;;8.52;6.07;;;6.60;90.90;;;;;;5045785;28;20040;-64
2024/02/02 01:58:58;;;;;;;8.38;6.35;;;6.70;91.00;;;;;;5044017;28;20029;-64
2024/02/02 02:01:24;;;;;;;6.13;5.32;;;6.70;91.10;;;;;;5041389;28;20589;-64
2024/02/02 02:03:49;;;;;;;7.07;5.55;;;6.70;91.10;;;;;;5039514;28;20033;-65
2024/02/02 02:06:15;;;;;;;7.25;5.85;;;6.70;91.10;;;;;;5039898;28;20036;-64
2024/02/02 02:08:41;;;;;;;6.00;5.43;;;6.70;91.10;;;;;;5043731;28;20033;-64
2024/02/02 02:11:08;;;;;;;8.43;5.50;;;6.80;91.10;;;;;;5045730;28;20055;-64
2024/02/02 02:13:34;;;;;;;6.35;5.18;;;6.70;91.00;;;;;;5042482;28;20033;-64
2024/02/02 02:15:59;;;;;;;5.82;5.22;;;6.70;91.00;;;;;;5041765;28;20037;-64
2024/02/02 02:18:25;;;;;;;5.72;5.13;;;6.80;90.90;;;;;;5039961;28;20380;-64
2024/02/02 02:20:54;;;;;;;6.35;5.20;;;6.80;91.20;;;;;;5043578;28;20509;-64
2024/02/02 02:23:19;;;;;;;6.45;5.28;;;6.80;90.90;;;;;;5039368;28;20480;-64
2024/02/02 02:25:45;;;;;;;6.28;5.40;;;6.80;90.80;;;;;;5040937;28;20037;-63
2024/02/02 02:28:11;;;;;;;5.97;5.25;;;6.90;90.80;;;;;;5041287;28;20025;-65
2024/02/02 02:30:37;;;;;;;6.35;5.50;;;6.80;90.80;;;;;;5044618;28;20029;-64
2024/02/02 02:33:04;;;;;;;5.75;5.10;;;6.80;90.70;;;;;;5043873;28;20045;-65
2024/02/02 02:35:30;;;;;;;5.80;5.13;;;6.80;90.70;;;;;;5045273;28;20087;-65
2024/02/02 02:37:56;;;;;;;6.72;5.40;;;6.80;90.60;;;;;;5041992;28;20052;-64
2024/02/02 02:40:21;;;;;;;5.68;5.07;;;6.80;90.60;;;;;;5038526;28;20115;-64
2024/02/02 02:42:51;;;;;;;6.13;5.32;;;6.80;90.60;;;;;;5043712;28;20489;-64
2024/02/02 02:45:17;;;;;;;5.13;4.63;;;6.80;90.50;;;;;;5043462;28;20566;-64
2024/02/02 02:47:43;;;;;;;6.75;5.45;;;6.80;90.50;;;;;;5037517;28;20053;-65
2024/02/02 02:50:11;;;;;;;7.32;5.32;;;6.80;90.50;;;;;;5034786;28;20052;-64
2024/02/02 02:52:38;;;;;;;6.28;4.85;;;6.80;90.40;;;;;;5037927;28;20420;-65
2024/02/02 02:55:05;;;;;;;6.28;5.20;;;6.80;90.40;;;;;;5038767;28;20037;-64
2024/02/02 02:57:31;;;;;;;5.70;5.00;;;6.80;90.40;;;;;;5041841;28;21062;-64
2024/02/02 02:59:57;;;;;;;6.15;5.00;;;6.70;90.40;;;;;;5041897;28;20563;-64
2024/02/02 03:02:22;;;;;;;6.10;4.97;;;6.80;90.40;;;;;;5038813;28;20036;-65
2024/02/02 03:04:48;;;;;;;5.32;4.82;;;6.70;90.40;;;;;;5040476;28;20049;-65
2024/02/02 03:07:13;;;;;;;7.03;5.40;;;6.70;90.40;;;;;;5043591;28;20037;-65
2024/02/02 03:09:40;;;;;;;5.78;4.97;;;6.70;90.40;;;;;;5043727;28;20098;-64
2024/02/02 03:12:06;;;;;;;5.75;5.00;;;6.70;90.40;;;;;;5037386;28;20551;-64
2024/02/02 03:14:32;;;;;;;6.32;5.30;;;6.70;90.40;;;;;;5040250;28;20048;-63
2024/02/02 03:16:57;;;;;;;5.28;4.75;;;6.70;90.40;;;;;;5042499;28;20029;-64
2024/02/02 03:19:23;;;;;;;6.53;4.60;;;6.70;90.40;;;;;;5036971;28;20037;-64
2024/02/02 03:21:49;;;;;;;6.78;5.07;;;6.70;90.40;;;;;;5035836;28;20033;-64
2024/02/02 03:24:14;;;;;;;5.22;4.72;;;6.70;90.40;;;;;;5040501;28;20207;-64
2024/02/02 03:26:40;;;;;;;6.22;4.68;;;6.70;90.30;;;;;;5039501;28;20057;-65
2024/02/02 03:29:06;;;;;;;5.72;4.70;;;6.70;90.40;;;;;;5042656;28;20037;-64
2024/02/02 03:31:31;;;;;;;6.00;5.07;;;6.70;90.40;;;;;;5046239;28;20037;-64
2024/02/02 03:33:57;;;;;;;4.63;4.22;;;6.70;90.40;;;;;;5038364;28;20057;-63
2024/02/02 03:36:23;;;;;;;5.43;4.78;;;6.70;90.40;;;;;;5043679;28;20033;-64
2024/02/02 03:38:49;;;;;;;6.97;4.80;;;6.60;90.40;;;;;;5042448;28;20045;-65
2024/02/02 03:41:17;;;;;;;6.57;4.88;;;6.70;90.40;;;;;;5043528;28;20237;-64
2024/02/02 03:43:43;;;;;;;5.95;4.75;;;6.70;90.40;;;;;;5044860;28;20469;-64
2024/02/02 03:46:08;;;;;;;5.63;4.72;;;6.60;90.40;;;;;;5038895;28;20135;-65
2024/02/02 03:48:34;;;;;;;6.43;5.50;;;6.60;90.40;;;;;;5041239;28;20029;-64
2024/02/02 03:50:59;;;;;;;6.05;5.38;;;6.70;90.50;;;;;;5041804;28;20462;-64
2024/02/02 03:53:25;;;;;;;6.03;5.43;;;6.60;90.40;;;;;;5038677;28;20108;-65
2024/02/02 03:55:50;;;;;;;6.90;5.68;;;6.70;90.50;;;;;;5043186;28;20555;-64
2024/02/02 03:58:16;;;;;;;6.07;5.43;;;6.70;90.40;;;;;;5038834;28;20053;-64
2024/02/02 04:00:42;;;;;;;5.85;5.15;;;6.70;90.40;;;;;;5041783;28;20124;-65
2024/02/02 04:03:08;;;;;;;5.00;4.50;;;6.70;90.40;;;;;;5039332;28;20037;-64
2024/02/02 04:05:33;;;;;;;5.53;4.72;;;6.70;90.40;;;;;;5038422;28;20102;-65
2024/02/02 04:07:59;;;;;;;5.80;4.32;;;6.80;90.40;;;;;;5044009;28;20033;-64
2024/02/02 04:10:25;;;;;;;4.80;4.28;;;6.70;90.30;;;;;;5040107;28;20025;-64
2024/02/02 04:12:50;;;;;;;6.25;4.20;;;6.70;90.30;;;;;;5039315;28;20041;-64
2024/02/02 04:15:16;;;;;;;5.32;4.22;;;6.80;90.40;;;;;;5040942;28;20043;-65
2024/02/02 04:17:41;;;;;;;4.65;4.15;;;6.80;90.40;;;;;;5041012;28;20045;-64
2024/02/02 04:20:08;;;;;;;5.53;4.55;;;6.80;90.40;;;;;;5042730;28;20082;-65
2024/02/02 04:22:33;;;;;;;6.55;4.75;;;6.80;90.40;;;;;;5041993;28;20069;-65
2024/02/02 04:24:59;;;;;;;5.25;4.20;;;6.80;90.40;;;;;;5046688;28;20456;-64
2024/02/02 04:27:24;;;;;;;4.93;4.43;;;6.80;90.30;;;;;;5043022;28;20037;-65
2024/02/02 04:29:50;;;;;;;6.88;5.03;;;6.80;90.30;;;;;;5044417;28;20558;-65
2024/02/02 04:32:16;;;;;;;5.22;4.60;;;6.80;90.30;;;;;;5041210;28;20096;-65
2024/02/02 04:34:41;;;;;;;5.53;4.57;;;6.80;90.30;;;;;;5042693;28;20037;-65
2024/02/02 04:37:07;;;;;;;5.70;5.15;;;6.90;90.30;;;;;;5044040;28;20029;-64
2024/02/02 04:39:33;;;;;;;5.38;4.85;;;6.80;90.20;;;;;;5040795;28;20037;-64
2024/02/02 04:41:59;;;;;;;7.32;5.78;;;6.80;90.10;;;;;;5047051;28;20049;-64
2024/02/02 04:44:25;;;;;;;7.82;5.75;;;6.80;90.00;;;;;;5042622;28;20131;-65
2024/02/02 04:46:50;;;;;;;6.60;5.82;;;6.80;90.00;;;;;;5041161;28;20041;-65
2024/02/02 04:49:16;;;;;;;6.38;5.60;;;6.80;90.00;;;;;;5042228;28;20064;-65
2024/02/02 04:51:41;;;;;;;7.65;6.07;;;6.70;90.00;;;;;;5038936;28;20040;-64
2024/02/02 04:54:07;;;;;;;7.18;5.53;;;6.70;90.00;;;;;;5046507;28;20059;-65
2024/02/02 04:56:33;;;;;;;7.50;5.75;;;6.70;90.00;;;;;;5043309;28;20052;-64
2024/02/02 04:58:58;;;;;;;7.57;5.72;;;6.60;90.00;;;;;;5040026;28;20404;-64
2024/02/02 05:01:24;;;;;;;7.90;6.00;;;6.60;90.10;;;;;;5048328;28;20086;-63
2024/02/02 05:03:50;;;;;;;6.20;5.60;;;6.60;90.10;;;;;;5044845;28;20043;-64
2024/02/02 05:06:16;;;;;;;7.88;6.35;;;6.60;90.10;;;;;;5040635;28;20040;-64
2024/02/02 05:08:43;;;;;;;11.80;7.57;;;6.50;90.10;;;;;;5039823;28;20041;-64
2024/02/02 05:11:10;;;;;;;9.25;7.47;;;6.50;90.10;;;;;;5043160;28;20044;-64
2024/02/02 05:13:36;;;;;;;11.32;7.53;;;6.40;90.20;;;;;;5042275;28;20124;-64
2024/02/02 05:16:01;;;;;;;8.15;7.00;;;6.40;90.20;;;;;;5043607;28;20174;-64
2024/02/02 05:18:27;;;;;;;8.88;7.00;;;6.40;90.20;;;;;;5043910;28;20411;-64
2024/02/02 05:20:53;;;;;;;10.80;7.07;;;6.40;90.30;;;;;;5042068;28;20029;-64
2024/02/02 05:23:18;;;;;;;7.70;6.90;;;6.30;90.40;;;;;;5043583;28;20116;-64
2024/02/02 05:25:44;;;;;;;7.53;6.35;;;6.30;90.40;;;;;;5042155;28;22324;-64
2024/02/02 05:28:10;;;;;;;10.00;6.78;;;6.30;90.50;;;;;;5044533;28;20127;-64
2024/02/02 05:30:37;;;;;;;8.25;6.22;;;6.30;90.60;;;;;;5041863;28;20508;-65
2024/02/02 05:33:03;;;;;;;7.80;6.20;;;6.30;90.70;;;;;;5035428;28;20087;-64
2024/02/02 05:35:29;;;;;;;9.00;6.53;;;6.30;90.70;;;;;;5041552;28;20033;-64
2024/02/02 05:37:54;;;;;;;7.55;5.82;;;6.30;90.70;;;;;;5038828;28;20536;-64
2024/02/02 05:40:20;;;;;;;7.00;5.60;;;6.40;90.70;;;;;;5035739;28;20112;-64
2024/02/02 05:42:45;;;;;;;7.47;6.00;;;6.40;90.70;;;;;;5037207;28;20412;-64
2024/02/02 05:45:11;;;;;;;6.70;5.60;;;6.40;90.70;;;;;;5041002;28;20045;-64
2024/02/02 05:47:37;;;;;;;7.90;6.20;;;6.40;90.70;;;;;;5039095;28;20176;-63
2024/02/02 05:50:03;;;;;;;8.20;6.28;;;6.50;90.70;;;;;;5038974;28;20046;-64
2024/02/02 05:52:28;;;;;;;9.00;6.40;;;6.50;90.70;;;;;;5040726;28;20102;-64
2024/02/02 05:54:54;;;;;;;7.95;6.47;;;6.50;90.70;;;;;;5045189;28;20040;-64
2024/02/02 05:57:19;;;;;;;9.18;6.70;;;6.50;90.70;;;;;;5046676;28;20120;-64
2024/02/02 05:59:45;;;;;;;8.55;6.35;;;6.60;90.70;;;;;;5048038;28;20052;-64
2024/02/02 06:02:10;;;;;;;7.55;5.90;;;6.60;90.70;;;;;;5042975;28;20497;-64
2024/02/02 06:04:36;;;;;;;9.30;6.45;;;6.60;90.70;;;;;;5043137;28;20041;-64
2024/02/02 06:07:02;;;;;;;8.55;6.63;;;6.60;90.60;;;;;;5041231;28;20041;-64
2024/02/02 06:09:27;;;;;;;7.63;6.13;;;6.60;90.60;;;;;;5036023;28;20043;-64
2024/02/02 06:11:53;;;;;;;6.80;5.70;;;6.70;90.60;;;;;;5042229;28;20119;-64
2024/02/02 06:14:18;;;;;;;6.75;5.65;;;6.70;90.60;;;;;;5042737;28;20043;-64
2024/02/02 06:16:44;;;;;;;6.25;5.60;;;6.70;90.60;;;;;;5047679;28;20032;-64
2024/02/02 06:19:10;;;;;;;7.25;5.85;;;6.70;90.50;;;;;;5049092;28;20850;-64
2024/02/02 06:21:35;;;;;;;8.10;5.80;;;6.70;90.50;;;;;;5047746;28;20033;-64
2024/02/02 06:24:01;;;;;;;7.28;5.40;;;6.70;90.50;;;;;;5047583;28;20083;-64
2024/02/02 06:26:26;;;;;;;10.02;6.28;;;6.80;90.50;;;;;;5044395;28;20039;-64
2024/02/02 06:28:52;;;;;;;7.75;5.50;;;6.80;90.50;;;;;;5048558;28;20047;-64
2024/02/02 06:31:19;;;;;;;6.28;5.30;;;6.80;90.50;;;;;;5049098;28;20039;-64
2024/02/02 06:33:45;;;;;;;8.10;6.00;;;6.80;90.50;;;;;;5044552;28;20033;-64
2024/02/02 06:36:11;;;;;;;7.38;6.00;;;6.80;90.40;;;;;;5044552;28;20412;-64
2024/02/02 06:38:36;;;;;;;7.85;6.32;;;6.80;90.40;;;;;;5044577;28;20116;-65
2024/02/02 06:41:02;;;;;;;9.18;6.53;;;6.80;90.40;;;;;;5046541;28;20456;-64
2024/02/02 06:43:28;;;;;;;6.93;5.93;;;6.80;90.40;;;;;;5045374;28;20021;-64
2024/02/02 06:45:54;;;;;;;7.60;5.95;;;6.80;90.40;;;;;;5046422;28;20041;-64
2024/02/02 06:48:21;;;;;;;9.25;5.88;;;6.90;90.40;;;;;;5046574;28;20360;-64
2024/02/02 06:50:46;;;;;;;6.30;5.10;;;6.90;90.40;;;;;;5044158;28;20041;-64
2024/02/02 06:53:12;;;;;;;7.88;5.65;;;6.90;90.40;;;;;;5044962;28;20688;-64
2024/02/02 06:55:38;;;;;;;6.97;5.82;;;6.90;90.40;;;;;;5043986;28;20033;-64
2024/02/02 06:58:05;;;;;;;7.75;5.88;;;6.90;90.40;;;;;;5044915;28;20044;-65
2024/02/02 07:00:31;;;;;;;7.53;5.68;;;6.90;90.40;;;;;;5044733;28;20052;-64
2024/02/02 07:02:58;;;;;;;9.10;6.38;;;7.00;90.40;;;;;;5043970;28;20032;-64
2024/02/02 07:05:25;;;;;;;6.88;5.75;;;6.90;90.30;;;;;;5042850;28;20037;-65
2024/02/02 07:07:51;;;;;;;8.48;6.10;;;6.90;90.40;;;;;;5045409;28;20043;-64
2024/02/02 07:10:18;;;;;;;8.88;7.22;;;6.90;90.40;;;;;;5046054;28;20064;-64
2024/02/02 07:12:59;;;;;;;12.23;8.25;;;7.00;90.40;;;;;;5043967;28;20131;-64
2024/02/02 07:15:30;;;;;;;8.95;7.15;;;7.00;90.40;;;;;;5042956;28;20041;-64
2024/02/02 07:17:57;;;;;;;8.63;6.40;;;7.00;90.40;;;;;;5045350;28;20262;-64
2024/02/02 07:20:23;;;;;;;11.45;7.35;;;7.10;90.40;;;;;;5044366;28;20051;-63
2024/02/02 07:22:51;;;;;;;10.98;7.70;;;7.10;90.40;;;;;;5046843;28;20461;-64
2024/02/02 07:25:21;;;;;;;12.80;8.35;;;7.00;90.40;;;;;;5048571;28;20226;-64
2024/02/02 07:27:51;;;;;;;12.55;8.55;;;7.10;90.50;;;;;;5045885;28;20045;-63
2024/02/02 07:30:41;;;;;;;13.15;9.63;;;7.10;90.60;;;;;;5040556;28;20040;-65
2024/02/02 07:33:24;;;;;;;12.80;9.00;;;7.10;90.70;;;;;;5043677;28;20112;-64
2024/02/02 07:35:51;;;;;;;14.07;9.68;;;7.10;90.70;;;;;;5043757;28;20036;-64
2024/02/02 07:38:26;;;;;;;15.07;9.68;;;7.10;90.60;;;;;;5043848;28;20053;-65
2024/02/02 07:41:04;;;;;;;13.70;9.43;;;7.10;90.60;;;;;;5041836;28;20035;-64
2024/02/02 07:43:33;;;;;;;15.05;9.75;;;7.20;90.70;;;;;;5041748;28;20094;-64
2024/02/02 07:46:03;;;;;;;12.13;8.73;;;7.20;90.70;;;;;;5040220;28;20041;-64
2024/02/02 07:48:29;;;;;;;12.32;9.02;;;7.20;90.70;;;;;;5042043;28;20090;-64
2024/02/02 07:50:55;;;;;;;10.63;7.93;;;7.30;90.70;;;;;;5049072;28;20036;-63
2024/02/02 07:53:21;;;;;;;10.20;7.85;;;7.20;90.70;;;;;;5040958;28;20400;-64
2024/02/02 07:55:46;;;;;;;10.60;7.95;;;7.20;90.70;;;;;;5045125;28;20418;-65
2024/02/02 07:58:12;;;;;;;10.40;8.02;;;7.30;90.80;;;;;;5044967;28;20040;-64
2024/02/02 08:00:37;;;;;;;11.45;8.10;;;7.30;91.10;;;;;;5046334;28;20037;-62
2024/02/02 08:03:04;;;;;;;10.32;7.90;;;7.30;90.70;;;;;;5049224;28;20032;-64
2024/02/02 08:05:30;;;;;;;10.25;7.65;;;7.30;90.70;;;;;;5045288;28;20575;-64
2024/02/02 08:07:55;;;;;;;9.40;7.22;;;7.40;90.70;;;;;;5050712;28;20135;-64
2024/02/02 08:10:21;;;;;;;9.35;7.15;;;7.30;90.60;;;;;;5046161;28;20102;-64
2024/02/02 08:12:46;;;;;;;9.82;7.47;;;7.30;90.60;;;;;;5045897;28;20320;-64
2024/02/02 08:15:12;;;;;;;9.93;7.78;;;7.40;90.60;;;;;;5047229;28;20508;-65
2024/02/02 08:17:38;;;;;;;11.45;7.63;;;7.40;90.50;;;;;;5045458;28;20041;-64
2024/02/02 08:20:04;;;;;;;10.02;7.57;;;7.40;90.60;;;;;;5045962;28;20095;-64
2024/02/02 08:22:29;;;;;;;11.45;8.55;;;7.40;90.50;;;;;;5044969;28;20052;-64
2024/02/02 08:24:55;;;;;;;12.15;8.43;;;7.30;90.60;;;;;;5046356;28;20056;-65
2024/02/02 08:27:21;;;;;;;10.00;8.18;;;7.30;90.60;;;;;;5050817;28;20033;-65
2024/02/02 08:29:47;;;;;;;10.88;8.27;;;7.40;90.60;;;;;;5045811;28;20094;-64
2024/02/02 08:32:13;;;;;;;10.00;7.78;;;7.30;90.60;;;;;;5048614;28;20156;-64
2024/02/02 08:34:39;;;;;;;10.82;7.93;;;7.30;90.60;;;;;;5045044;28;20040;-65
2024/02/02 08:37:05;;;;;;;11.77;7.80;;;7.30;90.70;;;;;;5046106;28;20045;-63
2024/02/02 08:39:34;;;;;;;10.95;7.72;;;7.30;90.70;;;;;;5044136;28;20083;-64
2024/02/02 08:42:09;;;;;;;11.57;7.45;;;7.30;90.80;;;;;;5045435;28;20033;-64
2024/02/02 08:44:35;;;;;;;11.82;8.35;;;7.30;90.80;;;;;;5044686;28;20039;-65
2024/02/02 08:47:01;;;;;;;11.30;8.15;;;7.30;90.80;;;;;;5044975;28;20397;-65
2024/02/02 08:49:55;;;;;;;11.48;8.20;;;7.30;90.80;;;;;;5046274;28;20045;-64
2024/02/02 08:52:32;;;;;;;11.77;8.27;;;7.30;91.00;;;;;;5047031;28;20044;-64
2024/02/02 08:54:59;;;;;;;13.80;8.57;;;7.40;91.00;;;;;;5044952;28;20049;-64
2024/02/02 08:57:32;;;;;;;10.85;7.95;;;7.40;90.90;;;;;;5046022;28;20044;-64
2024/02/02 09:00:18;;;;;;;10.77;7.85;;;7.40;91.00;;;;;;5051021;28;20036;-64
2024/02/02 09:03:16;;;;;;;13.23;8.90;;;7.40;91.00;;;;;;5033546;28;20045;-64
2024/02/02 09:05:54;;;;;;;12.75;8.65;;;7.40;91.10;;;;;;5045055;28;20075;-64
2024/02/02 09:08:37;;;;;;;12.10;8.40;;;7.40;91.00;;;;;;5045196;28;20135;-65
2024/02/02 09:11:12;;;;;;;11.23;7.90;;;7.50;91.10;;;;;;5040675;28;20060;-64
2024/02/02 09:13:41;;;;;;;12.23;8.02;;;7.50;91.00;;;;;;5045857;28;20102;-62
2024/02/02 09:16:08;;;;;;;12.20;9.00;;;7.50;90.90;;;;;;5044371;28;20083;-64
2024/02/02 09:18:37;;;;;;;12.43;8.60;;;7.50;91.00;;;;;;5043241;28;20044;-64
2024/02/02 09:21:07;;;;;;;12.95;8.60;;;7.50;91.00;;;;;;5045536;28;20052;-64
2024/02/02 09:23:35;;;;;;;13.07;8.75;;;7.50;91.00;;;;;;5042715;28;20128;-64
2024/02/02 09:26:11;;;;;;;13.38;9.05;;;7.40;91.00;;;;;;5045141;28;20033;-64
2024/02/02 09:28:41;;;;;;;13.55;8.70;;;7.50;91.10;;;;;;5045986;28;20041;-64
2024/02/02 09:31:12;;;;;;;12.20;8.80;;;7.50;91.10;;;;;;5047804;28;20395;-63
2024/02/02 09:33:45;;;;;;;12.07;8.55;;;7.50;91.10;;;;;;5044963;28;20037;-64
2024/02/02 09:36:11;;;;;;;12.60;8.80;;;7.50;91.10;;;;;;5042606;28;20038;-64
2024/02/02 09:38:38;;;;;;;12.10;8.30;;;7.50;91.10;;;;;;5045125;28;20040;-64
2024/02/02 09:41:03;;;;;;;13.90;8.63;;;7.60;91.20;;;;;;5046578;28;20067;-65
2024/02/02 09:43:29;;;;;;;14.20;8.98;;;7.50;91.20;;;;;;5045663;28;20052;-64
2024/02/02 09:46:09;;;;;;;12.55;8.90;;;7.50;91.30;;;;;;5045495;28;20052;-64
2024/02/02 09:49:03;;;;;;;12.52;8.77;;;7.60;91.40;;;;;;5048740;28;20405;-65
2024/02/02 09:51:41;;;;;;;13.60;8.57;;;7.60;91.40;;;;;;5044786;28;20036;-63
2024/02/02 09:54:31;;;;;;;14.20;8.77;;;7.70;91.50;;;;;;5040066;28;20421;-64
2024/02/02 09:57:02;;;;;;;11.77;8.23;;;7.70;91.40;;;;;;5046898;28;20488;-64
2024/02/02 09:59:34;;;;;;;12.32;8.43;;;7.70;91.40;;;;;;5044066;28;20040;-64
2024/02/02 10:02:43;;;;;;;11.95;8.30;;;7.70;91.30;;;;;;5044579;28;20044;-64
2024/02/02 10:05:37;;;;;;;11.70;7.97;;;7.80;91.50;;;;;;5046597;28;20105;-64
2024/02/02 10:08:48;;;;;;;11.65;8.07;;;7.80;91.40;;;;;;5046191;28;20033;-64
2024/02/02 10:11:35;;;;;;;12.40;7.93;;;7.90;91.40;;;;;;5042162;28;20040;-64
2024/02/02 10:14:10;;;;;;;11.88;8.23;;;7.90;91.30;;;;;;5041835;28;20063;-64
2024/02/02 10:16:47;;;;;;;;;;;8.00;91.30;;;;;;5045644;28;20033;-64
2024/02/02 10:19:50;;;;;;;9.27;6.80;;;8.00;91.40;;;;;;5046302;28;19919;-64
2024/02/02 10:22:40;;;;;;;10.18;7.40;;;8.00;91.30;;;;;;5047388;28;20083;-62
2024/02/02 10:25:14;;;;;;;10.65;7.72;;;8.10;91.20;;;;;;5043583;28;20039;-64
2024/02/02 10:28:00;;;;;;;10.45;7.68;;;8.10;91.20;;;;;;5041962;28;20041;-64
2024/02/02 10:31:02;;;;;;;10.75;7.38;;;8.20;91.20;;;;;;5040496;28;20130;-65
2024/02/02 10:33:37;;;;;;;10.73;7.90;;;8.20;91.20;;;;;;5041340;28;20044;-63
2024/02/02 10:36:45;;;;;;;11.32;7.88;;;8.20;91.20;;;;;;5043454;28;20041;-64
2024/02/02 10:39:11;;;;;;;12.82;7.47;;;8.30;91.30;;;;;;5041152;28;20067;-64
2024/02/02 10:42:12;;;;;;;12.98;7.95;;;8.40;91.30;;;;;;5043232;28;20482;-64
2024/02/02 10:45:15;;;;;;;11.07;7.88;;;8.40;91.30;;;;;;5018213;28;20032;-64
2024/02/02 10:48:18;;;;;;;12.15;8.40;;;8.50;91.20;;;;;;5044344;28;20033;-64
2024/02/02 10:50:51;;;;;;;12.77;7.97;;;8.60;91.20;;;;;;5045960;28;20052;-63
2024/02/02 10:53:45;;;;;;;10.48;8.10;;;8.60;91.10;;;;;;5043844;28;20051;-64
2024/02/02 10:56:41;;;;;;;11.25;8.00;;;8.70;91.10;;;;;;5040859;28;20040;-64
2024/02/02 10:59:30;;;;;;;11.77;8.00;;;8.70;91.00;;;;;;5027109;28;20086;-64
2024/02/02 11:02:12;;;;;;;12.00;7.70;;;8.80;91.00;;;;;;5041463;28;20441;-64
2024/02/02 11:05:05;;;;;;;11.63;7.40;;;8.80;90.90;;;;;;5043496;28;20126;-64
2024/02/02 11:07:40;;;;;;;10.50;7.30;;;8.90;90.90;;;;;;5037341;28;20038;-64
2024/02/02 11:10:07;;;;;;;11.05;7.53;;;8.90;90.80;;;;;;5041982;28;20041;-64
2024/02/02 11:12:49;;;;;;;9.68;7.28;;;8.90;90.80;;;;;;5045402;28;20505;-64
2024/02/02 11:15:47;;;;;;;10.25;7.38;;;8.90;90.90;;;;;;5042562;28;20037;-64
2024/02/02 11:18:36;;;;;;;9.55;7.10;;;9.00;91.00;;;;;;5039155;28;20033;-64
2024/02/02 11:21:38;;;;;;;9.52;7.18;;;9.10;91.00;;;;;;5041608;28;20404;-64
2024/02/02 11:24:35;;;;;;;9.27;6.97;;;9.10;90.90;;;;;;5045140;28;20409;-64
2024/02/02 11:27:08;;;;;;;8.82;6.50;;;9.20;90.80;;;;;;5043860;28;20048;-64
2024/02/02 11:29:43;;;;;;;13.50;9.38;;;9.30;90.80;;;;;;5043633;28;20034;-64
2024/02/02 11:32:39;;;;;;;10.07;6.88;;;9.30;90.70;;;;;;5046896;28;20048;-65
2024/02/02 11:35:55;;;;;;;8.65;6.63;;;9.40;90.60;;;;;;5047247;28;20044;-65
2024/02/02 11:38:23;;;;;;;8.70;6.85;;;9.50;90.60;;;;;;4977439;28;21391;-64
2024/02/02 11:40:51;;;;;;;8.18;6.40;;;9.50;90.60;;;;;;4973458;28;20039;-64
2024/02/02 11:43:17;;;;;;;7.72;6.45;;;9.50;90.50;;;;;;5012625;28;20393;-64
2024/02/02 11:45:46;;;;;;;8.68;6.60;;;9.60;90.50;;;;;;5043548;28;20231;-65
2024/02/02 11:48:20;;;;;;;9.35;6.80;;;9.60;90.50;;;;;;5043045;28;20377;-65
2024/02/02 11:50:48;;;;;;;7.65;6.10;;;9.70;90.30;;;;;;5044285;28;20032;-64
2024/02/02 11:53:28;;;;;;;8.10;6.10;;;9.70;90.30;;;;;;5043528;28;20033;-65
2024/02/02 11:56:00;;;;;;;6.65;5.47;;;9.80;90.00;;;;;;5040356;28;20307;-64
2024/02/02 11:58:27;;;;;;;8.05;6.15;;;9.90;90.00;;;;;;5042062;28;20033;-64
2024/02/02 12:01:05;;;;;;;6.85;5.38;;;9.90;89.70;;;;;;5043168;28;20072;-64
2024/02/02 12:03:53;;;;;;;8.05;6.10;;;9.90;88.60;;;;;;5040289;28;20025;-64
2024/02/02 12:06:20;;;;;;;8.52;6.22;;;10.00;88.80;;;;;;5040438;28;20436;-64
2024/02/02 12:08:52;;;;;;;6.80;5.93;;;10.00;89.20;;;;;;5045292;28;20412;-64
2024/02/02 12:11:21;;;;;;;6.00;5.22;;;10.00;88.90;;;;;;5046183;28;20033;-64
2024/02/02 12:13:49;;;;;;;6.95;5.63;;;10.00;88.80;;;;;;5043374;28;20128;-64
2024/02/02 12:16:15;;;;;;;8.18;5.63;;;10.10;88.80;;;;;;5047929;28;20406;-64
2024/02/02 12:18:40;;;;;;;6.97;5.68;;;10.10;88.40;;;;;;5041405;28;20021;-65
2024/02/02 12:21:12;;;;;;;7.03;5.57;;;10.20;88.30;;;;;;5043598;28;20519;-63
2024/02/02 12:23:38;;;;;;;8.02;5.78;;;10.20;88.20;;;;;;5043617;28;20034;-64
2024/02/02 12:26:06;;;;;;;7.53;5.93;;;10.30;88.00;;;;;;5041796;28;20028;-64
2024/02/02 12:28:32;;;;;;;7.22;5.47;;;10.30;88.60;;;;;;5042836;28;20056;-65
2024/02/02 12:30:58;;;;;;;6.55;5.45;;;10.30;87.30;;;;;;5044882;28;20036;-64
2024/02/02 12:33:23;;;;;;;6.18;5.53;;;10.40;87.40;;;;;;5041515;28;20040;-65
2024/02/02 12:35:49;;;;;;;8.27;5.60;;;10.40;86.80;;;;;;5041525;28;20029;-65
2024/02/02 12:38:22;;;;;;;7.75;5.90;;;10.40;86.40;;;;;;5042310;28;20040;-65
2024/02/02 12:40:48;;;;;;;6.78;5.72;;;10.50;86.40;;;;;;5041058;28;20039;-64
2024/02/02 12:43:14;;;;;;;6.63;5.15;;;10.50;86.30;;;;;;5043460;28;20404;-65
2024/02/02 12:45:41;;;;;;;8.13;5.82;;;10.50;86.00;;;;;;5036717;28;20029;-65
2024/02/02 12:48:08;;;;;;;6.75;5.60;;;10.60;85.40;;;;;;5044446;28;20052;-65
2024/02/02 12:50:34;;;;;;;8.40;5.60;;;10.60;85.50;;;;;;5043954;28;20034;-65
2024/02/02 12:53:01;;;;;;;7.05;5.30;;;10.60;85.50;;;;;;5051559;28;20040;-65
2024/02/02 12:55:27;;;;;;;5.97;5.05;;;10.70;86.70;;;;;;5045665;28;20519;-65
2024/02/02 12:57:53;;;;;;;6.68;5.40;;;10.70;85.80;;;;;;5045940;28;20040;-65
2024/02/02 13:00:19;;;;;;;6.00;4.97;;;10.70;85.30;;;;;;5048963;28;20556;-65
2024/02/02 13:02:45;;;;;;;6.35;4.90;;;10.80;85.20;;;;;;5048542;28;20516;-65
2024/02/02 13:05:18;;;;;;;6.40;5.20;;;10.80;84.90;;;;;;5046703;28;20122;-64
2024/02/02 13:07:51;;;;;;;6.63;4.80;;;10.80;84.60;;;;;;5048501;28;20518;-65